createdAt,value
2018-04-15T00:00:18.694Z,101742.53
2018-04-15T00:01:22.937Z,101740.33
2018-04-15T00:02:27.072Z,101739.45
2018-04-15T00:03:31.201Z,101740.76
2018-04-15T00:04:35.351Z,101738.98
2018-04-15T00:05:39.569Z,101743.39
2018-04-15T00:06:43.715Z,101740.75
2018-04-15T00:07:47.854Z,101741.64
2018-04-15T00:08:52.321Z,101735.84
2018-04-15T00:09:56.604Z,101741.55
2018-04-15T00:11:00.844Z,101739.30
2018-04-15T00:12:05.345Z,101743.27
2018-04-15T00:13:09.509Z,101739.71
2018-04-15T00:14:13.761Z,101734.80
2018-04-15T00:15:18.185Z,101729.93
2018-04-15T00:16:22.509Z,101737.91
2018-04-15T00:17:26.649Z,101738.80
2018-04-15T00:18:31.111Z,101731.77
2018-04-15T00:19:35.249Z,101734.42
2018-04-15T00:20:39.499Z,101737.06
2018-04-15T00:21:43.751Z,101726.42
2018-04-15T00:22:48.130Z,101731.27
2018-04-15T00:23:52.274Z,101734.34
2018-04-15T00:24:56.813Z,101724.59
2018-04-15T00:26:00.944Z,101728.13
2018-04-15T00:27:06.068Z,101724.15
2018-04-15T00:28:10.297Z,101721.93
2018-04-15T00:29:14.466Z,101725.98
2018-04-15T00:30:18.789Z,101727.41
2018-04-15T00:31:22.946Z,101720.33
2018-04-15T00:32:27.087Z,101722.09
2018-04-15T00:33:31.227Z,101719.84
2018-04-15T00:34:35.461Z,101716.70
2018-04-15T00:35:39.622Z,101714.04
2018-04-15T00:36:43.747Z,101718.91
2018-04-15T00:37:48.233Z,101714.05
2018-04-15T00:38:52.361Z,101717.13
2018-04-15T00:39:56.590Z,101715.81
2018-04-15T00:41:00.738Z,101715.80
2018-04-15T00:42:04.859Z,101714.45
2018-04-15T00:43:09.438Z,101708.26
2018-04-15T00:44:13.920Z,101710.88
2018-04-15T00:45:18.547Z,101702.92
2018-04-15T00:46:22.688Z,101705.62
2018-04-15T00:47:27.181Z,101703.41
2018-04-15T00:48:31.499Z,101704.75
2018-04-15T00:49:35.699Z,101695.02
2018-04-15T00:50:41.215Z,101697.71
2018-04-15T00:51:45.623Z,101697.30
2018-04-15T00:52:49.749Z,101699.06
2018-04-15T00:54:03.649Z,101699.08
2018-04-15T00:55:07.762Z,101699.97
2018-04-15T00:56:11.976Z,101693.26
2018-04-15T00:57:16.117Z,101699.89
2018-04-15T00:58:20.254Z,101701.21
2018-04-15T00:59:24.401Z,101696.77
2018-04-15T01:00:28.962Z,101697.64
2018-04-15T01:01:33.110Z,101699.86
2018-04-15T01:02:37.267Z,101699.86
2018-04-15T01:03:41.684Z,101698.09
2018-04-15T01:04:45.856Z,101698.06
2018-04-15T01:05:50.080Z,101693.64
2018-04-15T01:06:54.611Z,101694.08
2018-04-15T01:07:59.291Z,101691.01
2018-04-15T01:09:04.431Z,101686.14
2018-04-15T01:10:08.767Z,101686.12
2018-04-15T01:11:13.284Z,101690.10
2018-04-15T01:12:17.757Z,101685.66
2018-04-15T01:13:22.736Z,101686.55
2018-04-15T01:14:27.155Z,101686.57
2018-04-15T01:15:31.635Z,101681.70
2018-04-15T01:16:35.843Z,101674.63
2018-04-15T01:17:40.033Z,101673.28
2018-04-15T01:18:44.165Z,101676.84
2018-04-15T01:19:48.957Z,101674.19
2018-04-15T01:20:53.389Z,101679.94
2018-04-15T01:21:57.573Z,101677.72
2018-04-15T01:23:02.373Z,101677.28
2018-04-15T01:24:06.551Z,101674.63
2018-04-15T01:25:10.680Z,101677.75
2018-04-15T01:26:15.126Z,101676.41
2018-04-15T01:27:19.250Z,101677.72
2018-04-15T01:28:23.460Z,101671.97
2018-04-15T01:29:27.618Z,101671.09
2018-04-15T01:30:32.259Z,101664.88
2018-04-15T01:31:36.392Z,101669.72
2018-04-15T01:32:40.534Z,101668.85
2018-04-15T01:33:44.759Z,101663.09
2018-04-15T01:34:48.948Z,101658.64
2018-04-15T01:35:53.091Z,101653.34
2018-04-15T01:36:58.683Z,101656.41
2018-04-15T01:38:02.914Z,101658.62
2018-04-15T01:39:07.425Z,101650.23
2018-04-15T01:40:11.923Z,101654.66
2018-04-15T01:41:16.391Z,101653.77
2018-04-15T01:42:20.761Z,101648.89
2018-04-15T01:43:25.567Z,101652.47
2018-04-15T01:44:29.796Z,101648.03
2018-04-15T01:45:34.199Z,101644.52
2018-04-15T01:46:38.598Z,101640.97
2018-04-15T01:47:43.085Z,101641.42
2018-04-15T01:48:47.524Z,101639.19
2018-04-15T01:49:52.366Z,101634.76
2018-04-15T01:50:57.469Z,101634.76
2018-04-15T01:52:01.656Z,101636.99
2018-04-15T01:53:06.200Z,101641.92
2018-04-15T01:54:10.686Z,101641.95
2018-04-15T01:55:15.500Z,101633.98
2018-04-15T01:56:19.724Z,101639.30
2018-04-15T01:57:24.236Z,101643.27
2018-04-15T01:58:28.377Z,101635.76
2018-04-15T01:59:32.730Z,101637.50
2018-04-15T02:00:37.301Z,101637.49
2018-04-15T02:01:41.725Z,101635.26
2018-04-15T02:02:45.865Z,101641.02
2018-04-15T02:03:49.993Z,101634.36
2018-04-15T02:04:54.256Z,101633.94
2018-04-15T02:05:59.026Z,101636.13
2018-04-15T02:07:03.170Z,101633.05
2018-04-15T02:08:07.846Z,101631.70
2018-04-15T02:09:12.014Z,101633.89
2018-04-15T02:10:16.253Z,101627.72
2018-04-15T02:11:20.371Z,101630.83
2018-04-15T02:12:24.512Z,101624.19
2018-04-15T02:13:28.767Z,101627.73
2018-04-15T02:14:33.217Z,101622.88
2018-04-15T02:15:37.741Z,101626.39
2018-04-15T02:16:41.937Z,101620.19
2018-04-15T02:17:46.087Z,101624.59
2018-04-15T02:18:50.341Z,101622.38
2018-04-15T02:19:54.443Z,101621.05
2018-04-15T02:20:58.648Z,101627.70
2018-04-15T02:22:02.783Z,101620.66
2018-04-15T02:23:07.787Z,101620.66
2018-04-15T02:24:11.921Z,101620.23
2018-04-15T02:25:16.919Z,101610.45
2018-04-15T02:26:21.466Z,101609.59
2018-04-15T02:27:25.583Z,101605.14
2018-04-15T02:28:29.703Z,101605.12
2018-04-15T02:29:33.919Z,101603.36
2018-04-15T02:30:38.368Z,101600.23
2018-04-15T02:31:42.817Z,101598.02
2018-04-15T02:32:47.215Z,101595.37
2018-04-15T02:33:51.406Z,101595.81
2018-04-15T02:34:55.577Z,101587.42
2018-04-15T02:35:59.712Z,101588.75
2018-04-15T02:37:03.866Z,101588.75
2018-04-15T02:38:08.871Z,101588.28
2018-04-15T02:39:14.157Z,101583.86
2018-04-15T02:40:18.289Z,101581.22
2018-04-15T02:41:22.609Z,101573.67
2018-04-15T02:42:26.827Z,101579.42
2018-04-15T02:43:31.051Z,101575.45
2018-04-15T02:44:35.187Z,101570.15
2018-04-15T02:45:40.147Z,101572.37
2018-04-15T02:46:44.369Z,101565.74
2018-04-15T02:47:48.545Z,101564.41
2018-04-15T02:48:52.926Z,101563.09
2018-04-15T02:49:57.423Z,101565.77
2018-04-15T02:51:01.915Z,101560.48
2018-04-15T02:52:06.883Z,101560.89
2018-04-15T02:53:11.319Z,101567.53
2018-04-15T02:54:15.891Z,101564.01
2018-04-15T02:55:21.041Z,101553.81
2018-04-15T02:56:25.812Z,101555.14
2018-04-15T02:57:29.940Z,101553.39
2018-04-15T02:58:34.281Z,101557.36
2018-04-15T02:59:39.061Z,101554.25
2018-04-15T03:00:43.826Z,101560.45
2018-04-15T03:01:47.940Z,101558.25
2018-04-15T03:02:52.140Z,101560.45
2018-04-15T03:03:56.321Z,101555.58
2018-04-15T03:05:00.772Z,101561.34
2018-04-15T03:06:04.910Z,101562.22
2018-04-15T03:07:09.166Z,101563.13
2018-04-15T03:08:13.316Z,101558.23
2018-04-15T03:09:17.520Z,101552.02
2018-04-15T03:10:21.734Z,101558.66
2018-04-15T03:11:26.199Z,101550.66
2018-04-15T03:12:30.416Z,101555.55
2018-04-15T03:13:34.552Z,101560.00
2018-04-15T03:14:38.778Z,101552.89
2018-04-15T03:15:43.195Z,101552.91
2018-04-15T03:16:47.329Z,101555.08
2018-04-15T03:17:51.769Z,101551.57
2018-04-15T03:18:56.295Z,101548.92
2018-04-15T03:20:00.765Z,101558.25
2018-04-15T03:21:04.937Z,101552.06
2018-04-15T03:22:09.069Z,101554.70
2018-04-15T03:23:13.313Z,101553.81
2018-04-15T03:24:19.681Z,101550.28
2018-04-15T03:25:24.265Z,101549.36
2018-04-15T03:26:28.696Z,101544.47
2018-04-15T03:27:33.235Z,101545.80
2018-04-15T03:28:37.635Z,101548.02
2018-04-15T03:29:42.092Z,101546.25
2018-04-15T03:31:52.505Z,101548.47
2018-04-15T03:32:56.712Z,101544.94
2018-04-15T03:34:00.887Z,101546.69
2018-04-15T03:35:05.113Z,101545.81
2018-04-15T03:36:09.245Z,101543.12
2018-04-15T03:37:13.755Z,101539.13
2018-04-15T03:38:19.425Z,101532.03
2018-04-15T03:39:23.810Z,101537.35
2018-04-15T03:40:28.167Z,101532.04
2018-04-15T03:41:32.306Z,101531.15
2018-04-15T03:42:36.882Z,101533.81
2018-04-15T03:43:41.450Z,101529.36
2018-04-15T03:44:46.114Z,101535.57
2018-04-15T03:45:50.830Z,101529.81
2018-04-15T03:46:55.383Z,101527.15
2018-04-15T03:47:59.506Z,101533.80
2018-04-15T03:49:03.661Z,101537.79
2018-04-15T03:50:07.800Z,101536.88
2018-04-15T03:51:11.998Z,101539.05
2018-04-15T03:52:16.497Z,101539.88
2018-04-15T03:53:20.706Z,101534.52
2018-04-15T03:54:24.888Z,101538.50
2018-04-15T03:55:29.006Z,101533.16
2018-04-15T03:56:33.157Z,101529.19
2018-04-15T03:57:37.689Z,101530.55
2018-04-15T03:58:41.833Z,101534.58
2018-04-15T03:59:45.944Z,101537.68
2018-04-15T04:00:50.866Z,101533.67
2018-04-15T04:01:55.547Z,101540.73
2018-04-15T04:02:59.741Z,101533.61
2018-04-15T04:04:04.213Z,101535.76
2018-04-15T04:05:08.365Z,101534.41
2018-04-15T04:06:12.498Z,101542.88
2018-04-15T04:07:16.709Z,101548.24
2018-04-15T04:08:20.853Z,101538.11
2018-04-15T04:09:25.041Z,101544.79
2018-04-15T04:10:30.569Z,101551.48
2018-04-15T04:11:34.721Z,101554.14
2018-04-15T04:12:38.977Z,101556.34
2018-04-15T04:13:43.214Z,101561.67
2018-04-15T04:14:47.380Z,101561.69
2018-04-15T04:15:51.785Z,101564.78
2018-04-15T04:16:56.325Z,101561.27
2018-04-15T04:20:18.240Z,101564.82
2018-04-15T04:25:42.701Z,101555.98
2018-04-15T04:26:46.971Z,101567.06
2018-04-15T04:27:51.390Z,101570.60
2018-04-15T04:28:55.529Z,101563.96
2018-04-15T04:29:59.751Z,101565.74
2018-04-15T04:31:04.056Z,101564.83
2018-04-15T04:32:08.201Z,101568.41
2018-04-15T04:33:12.415Z,101565.75
2018-04-15T04:34:16.897Z,101569.75
2018-04-15T04:35:21.543Z,101568.85
2018-04-15T04:36:26.456Z,101567.51
2018-04-15T04:37:30.797Z,101560.83
2018-04-15T04:38:35.047Z,101566.13
2018-04-15T04:39:39.519Z,101564.34
2018-04-15T04:40:44.473Z,101556.78
2018-04-15T04:41:48.781Z,101560.78
2018-04-15T04:42:53.443Z,101559.88
2018-04-15T04:43:57.549Z,101558.98
2018-04-15T04:45:03.716Z,101559.41
2018-04-15T04:46:08.165Z,101556.73
2018-04-15T04:47:12.529Z,101552.75
2018-04-15T04:48:16.687Z,101554.95
2018-04-15T04:49:21.831Z,101560.25
2018-04-15T04:50:27.109Z,101551.79
2018-04-15T04:51:31.551Z,101552.22
2018-04-15T04:52:36.031Z,101556.62
2018-04-15T04:53:40.866Z,101552.63
2018-04-15T04:54:45.261Z,101556.17
2018-04-15T04:55:49.635Z,101551.28
2018-04-15T04:56:53.769Z,101555.71
2018-04-15T04:57:58.069Z,101556.05
2018-04-15T04:59:02.648Z,101547.53
2018-04-15T05:00:08.073Z,101553.30
2018-04-15T05:01:12.236Z,101549.21
2018-04-15T05:02:16.501Z,101557.55
2018-04-15T05:03:20.838Z,101550.05
2018-04-15T05:04:25.930Z,101544.81
2018-04-15T05:05:30.361Z,101547.48
2018-04-15T05:06:34.831Z,101548.41
2018-04-15T05:07:39.197Z,101546.21
2018-04-15T05:08:43.363Z,101548.84
2018-04-15T05:09:47.585Z,101549.24
2018-04-15T05:10:51.737Z,101548.78
2018-04-15T05:11:57.207Z,101555.80
2018-04-15T05:13:01.344Z,101545.08
2018-04-15T05:14:05.524Z,101547.22
2018-04-15T05:15:09.975Z,101549.45
2018-04-15T05:16:14.127Z,101547.70
2018-04-15T05:17:18.310Z,101547.71
2018-04-15T05:18:22.933Z,101549.89
2018-04-15T05:19:27.152Z,101555.59
2018-04-15T05:20:31.357Z,101551.55
2018-04-15T05:21:35.808Z,101554.17
2018-04-15T05:22:40.226Z,101554.61
2018-04-15T05:23:44.725Z,101557.74
2018-04-15T05:24:49.763Z,101551.53
2018-04-15T05:25:54.269Z,101553.30
2018-04-15T05:26:58.760Z,101555.56
2018-04-15T05:28:03.181Z,101556.52
2018-04-15T05:29:07.603Z,101554.28
2018-04-15T05:30:13.499Z,101548.10
2018-04-15T05:31:18.525Z,101550.80
2018-04-15T05:32:23.438Z,101550.40
2018-04-15T05:33:28.178Z,101552.19
2018-04-15T05:34:32.688Z,101557.11
2018-04-15T05:35:36.827Z,101552.27
2018-04-15T05:36:40.955Z,101548.75
2018-04-15T05:37:45.593Z,101548.33
2018-04-15T05:38:49.783Z,101552.41
2018-04-15T05:39:53.945Z,101548.05
2018-04-15T05:40:58.059Z,101553.45
2018-04-15T05:42:02.177Z,101554.29
2018-04-15T05:43:06.769Z,101557.83
2018-04-15T05:44:11.987Z,101552.45
2018-04-15T05:45:16.488Z,101559.95
2018-04-15T05:46:21.999Z,101559.05
2018-04-15T05:47:28.165Z,101560.37
2018-04-15T05:48:32.629Z,101562.13
2018-04-15T05:49:36.781Z,101562.14
2018-04-15T05:50:41.212Z,101561.27
2018-04-15T05:51:45.835Z,101566.15
2018-04-15T05:52:49.997Z,101566.13
2018-04-15T05:53:54.139Z,101578.62
2018-04-15T05:54:58.385Z,101570.23
2018-04-15T05:56:02.665Z,101572.92
2018-04-15T05:57:07.085Z,101579.61
2018-04-15T05:58:11.309Z,101588.94
2018-04-15T05:59:15.429Z,101589.86
2018-04-15T06:00:20.388Z,101576.13
2018-04-15T06:01:25.580Z,101579.25
2018-04-15T06:02:30.123Z,101577.94
2018-04-15T06:03:34.248Z,101572.63
2018-04-15T06:04:38.525Z,101578.87
2018-04-15T06:05:42.685Z,101576.21
2018-04-15T06:06:46.821Z,101578.86
2018-04-15T06:07:51.061Z,101577.55
2018-04-15T06:08:56.563Z,101574.45
2018-04-15T06:10:00.716Z,101558.52
2018-04-15T06:11:04.837Z,101569.17
2018-04-15T06:12:09.058Z,101560.73
2018-04-15T06:13:13.226Z,101560.30
2018-04-15T06:14:17.367Z,101562.52
2018-04-15T06:15:21.835Z,101555.40
2018-04-15T06:16:26.055Z,101556.71
2018-04-15T06:17:30.279Z,101558.92
2018-04-15T06:18:34.406Z,101551.38
2018-04-15T06:19:38.662Z,101550.91
2018-04-15T06:20:43.164Z,101547.38
2018-04-15T06:21:47.391Z,101550.48
2018-04-15T06:22:51.545Z,101546.93
2018-04-15T06:23:55.793Z,101544.67
2018-04-15T06:24:59.927Z,101542.44
2018-04-15T06:26:04.177Z,101537.55
2018-04-15T06:27:08.718Z,101530.94
2018-04-15T06:28:12.881Z,101533.59
2018-04-15T06:29:17.015Z,101528.25
2018-04-15T06:30:22.438Z,101526.48
2018-04-15T06:31:26.621Z,101532.22
2018-04-15T06:32:30.759Z,101529.94
2018-04-15T06:33:35.263Z,101529.47
2018-04-15T06:34:39.479Z,101528.11
2018-04-15T06:35:43.713Z,101527.17
2018-04-15T06:36:47.914Z,101522.30
2018-04-15T06:37:52.063Z,101520.05
2018-04-15T06:38:56.189Z,101526.69
2018-04-15T06:40:00.781Z,101522.66
2018-04-15T06:41:04.933Z,101520.89
2018-04-15T06:42:09.164Z,101518.23
2018-04-15T06:43:13.414Z,101510.73
2018-04-15T06:44:17.626Z,101509.01
2018-04-15T06:45:22.175Z,101501.94
2018-04-15T06:46:26.724Z,101497.13
2018-04-15T06:47:31.145Z,101506.88
2018-04-15T06:48:35.683Z,101501.14
2018-04-15T06:49:39.875Z,101501.98
2018-04-15T06:50:44.009Z,101495.27
2018-04-15T06:51:48.748Z,101500.12
2018-04-15T06:52:53.118Z,101497.90
2018-04-15T06:53:57.406Z,101499.19
2018-04-15T06:55:01.675Z,101499.20
2018-04-15T06:56:05.900Z,101492.97
2018-04-15T06:57:10.053Z,101493.02
2018-04-15T06:58:14.215Z,101502.34
2018-04-15T06:59:18.900Z,101498.37
2018-04-15T07:00:23.276Z,101497.94
2018-04-15T07:01:27.472Z,101493.48
2018-04-15T07:02:32.270Z,101491.22
2018-04-15T07:03:36.556Z,101487.66
2018-04-15T07:04:41.044Z,101481.47
2018-04-15T07:05:45.304Z,101490.34
2018-04-15T07:06:49.493Z,101489.48
2018-04-15T07:07:53.677Z,101489.48
2018-04-15T07:08:57.824Z,101484.66
2018-04-15T07:10:02.051Z,101486.88
2018-04-15T07:11:06.678Z,101486.42
2018-04-15T07:12:10.854Z,101489.93
2018-04-15T07:13:15.066Z,101486.81
2018-04-15T07:14:19.272Z,101492.56
2018-04-15T07:15:24.902Z,101489.50
2018-04-15T07:16:29.089Z,101483.34
2018-04-15T07:17:33.421Z,101487.32
2018-04-15T07:18:37.668Z,101485.53
2018-04-15T07:19:41.902Z,101487.73
2018-04-15T07:20:46.062Z,101484.16
2018-04-15T07:21:50.221Z,101490.38
2018-04-15T07:22:54.719Z,101495.70
2018-04-15T07:23:58.935Z,101498.40
2018-04-15T07:25:03.131Z,101499.28
2018-04-15T07:26:07.294Z,101499.73
2018-04-15T07:27:11.453Z,101493.06
2018-04-15T07:28:15.962Z,101486.88
2018-04-15T07:29:20.187Z,101489.93
2018-04-15T07:30:25.194Z,101477.92
2018-04-15T07:31:30.252Z,101496.55
2018-04-15T07:32:34.480Z,101487.25
2018-04-15T07:33:38.667Z,101490.80
2018-04-15T07:34:43.230Z,101482.76
2018-04-15T07:35:47.475Z,101484.48
2018-04-15T07:36:51.659Z,101484.92
2018-04-15T07:37:55.892Z,101478.30
2018-04-15T07:39:00.149Z,101484.99
2018-04-15T07:40:04.337Z,101479.70
2018-04-15T07:41:08.851Z,101480.13
2018-04-15T07:42:13.019Z,101482.34
2018-04-15T07:43:17.193Z,101480.59
2018-04-15T07:44:21.564Z,101479.73
2018-04-15T07:45:26.501Z,101481.94
2018-04-15T07:46:31.435Z,101479.28
2018-04-15T07:47:35.988Z,101468.17
2018-04-15T07:48:40.149Z,101458.84
2018-04-15T07:49:44.296Z,101460.18
2018-04-15T07:50:48.573Z,101454.84
2018-04-15T07:51:52.721Z,101462.41
2018-04-15T07:52:56.849Z,101463.28
2018-04-15T07:54:01.026Z,101453.94
2018-04-15T07:55:05.182Z,101446.34
2018-04-15T07:56:09.495Z,101449.39
2018-04-15T07:57:13.665Z,101448.94
2018-04-15T07:58:17.920Z,101446.25
2018-04-15T07:59:22.054Z,101448.45
2018-04-15T08:00:27.096Z,101450.63
2018-04-15T08:01:31.358Z,101443.98
2018-04-15T08:02:35.531Z,101444.85
2018-04-15T08:03:40.056Z,101442.19
2018-04-15T08:04:44.346Z,101436.38
2018-04-15T08:05:48.523Z,101432.83
2018-04-15T08:06:52.783Z,101435.91
2018-04-15T08:07:56.953Z,101422.98
2018-04-15T08:09:01.168Z,101427.02
2018-04-15T08:10:05.685Z,101425.62
2018-04-15T08:11:09.934Z,101432.28
2018-04-15T08:12:14.317Z,101424.76
2018-04-15T08:13:18.615Z,101428.73
2018-04-15T08:14:22.873Z,101428.74
2018-04-15T08:15:27.842Z,101430.56
2018-04-15T08:16:32.296Z,101428.86
2018-04-15T08:17:36.431Z,101425.75
2018-04-15T08:18:40.694Z,101428.36
2018-04-15T08:19:44.909Z,101424.32
2018-04-15T08:20:49.134Z,101421.58
2018-04-15T08:21:53.309Z,101415.70
2018-04-15T08:22:58.003Z,101426.70
2018-04-15T08:24:02.284Z,101416.86
2018-04-15T08:25:06.832Z,101418.64
2018-04-15T08:26:11.608Z,101410.20
2018-04-15T08:27:15.864Z,101415.48
2018-04-15T08:28:20.055Z,101409.69
2018-04-15T08:29:24.301Z,101406.14
2018-04-15T08:30:28.692Z,101406.17
2018-04-15T08:31:32.868Z,101403.50
2018-04-15T08:32:37.009Z,101402.16
2018-04-15T08:33:41.166Z,101399.11
2018-04-15T08:34:45.440Z,101397.81
2018-04-15T08:35:49.949Z,101396.48
2018-04-15T08:36:54.196Z,101388.86
2018-04-15T08:37:58.425Z,101388.81
2018-04-15T08:39:02.695Z,101390.04
2018-04-15T08:40:06.929Z,101389.20
2018-04-15T08:41:11.858Z,101387.07
2018-04-15T08:42:16.363Z,101380.52
2018-04-15T08:43:21.224Z,101379.22
2018-04-15T08:44:25.533Z,101377.47
2018-04-15T08:45:30.904Z,101375.71
2018-04-15T08:46:35.068Z,101373.48
2018-04-15T08:47:39.315Z,101369.83
2018-04-15T08:48:43.471Z,101381.70
2018-04-15T08:49:47.641Z,101373.60
2018-04-15T08:50:51.877Z,101368.25
2018-04-15T08:51:56.085Z,101374.94
2018-04-15T08:53:00.331Z,101366.61
2018-04-15T08:54:04.486Z,101363.55
2018-04-15T08:55:08.737Z,101366.66
2018-04-15T08:56:12.875Z,101369.27
2018-04-15T08:57:17.441Z,101363.80
2018-04-15T08:58:21.749Z,101364.66
2018-04-15T08:59:25.920Z,101362.87
2018-04-15T09:00:31.907Z,101365.52
2018-04-15T09:01:36.351Z,101366.38
2018-04-15T09:02:40.874Z,101364.56
2018-04-15T09:03:45.057Z,101359.22
2018-04-15T09:04:49.388Z,101359.18
2018-04-15T09:05:53.543Z,101361.79
2018-04-15T09:06:58.019Z,101365.64
2018-04-15T09:08:02.190Z,101363.72
2018-04-15T09:09:07.372Z,101358.02
2018-04-15T09:10:11.621Z,101360.62
2018-04-15T09:11:15.785Z,101359.27
2018-04-15T09:12:20.030Z,101362.41
2018-04-15T09:13:24.484Z,101354.70
2018-04-15T09:14:28.789Z,101355.08
2018-04-15T09:15:34.366Z,101356.34
2018-04-15T09:16:39.418Z,101358.05
2018-04-15T09:17:43.576Z,101358.31
2018-04-15T09:18:47.742Z,101366.31
2018-04-15T09:19:51.998Z,101363.48
2018-04-15T09:20:56.195Z,101362.30
2018-04-15T09:22:00.454Z,101360.91
2018-04-15T09:23:04.654Z,101355.14
2018-04-15T09:24:08.824Z,101356.55
2018-04-15T09:25:13.142Z,101357.42
2018-04-15T09:26:17.618Z,101357.78
2018-04-15T09:27:21.758Z,101358.53
2018-04-15T09:28:25.940Z,101359.72
2018-04-15T09:29:30.771Z,101357.85
2018-04-15T09:30:39.142Z,101353.77
2018-04-15T09:31:43.586Z,101357.34
2018-04-15T09:32:48.161Z,101348.28
2018-04-15T09:33:52.384Z,101352.06
2018-04-15T09:34:56.684Z,101347.88
2018-04-15T09:36:00.876Z,101354.42
2018-04-15T09:37:05.168Z,101349.63
2018-04-15T09:38:09.353Z,101346.00
2018-04-15T09:39:13.564Z,101346.32
2018-04-15T09:40:17.747Z,101348.37
2018-04-15T09:41:21.939Z,101344.50
2018-04-15T09:42:26.273Z,101352.66
2018-04-15T09:43:31.565Z,101347.52
2018-04-15T09:44:36.906Z,101345.16
2018-04-15T09:45:41.472Z,101344.75
2018-04-15T09:46:45.788Z,101346.58
2018-04-15T09:47:49.981Z,101348.70
2018-04-15T09:48:54.127Z,101343.55
2018-04-15T09:49:58.435Z,101342.97
2018-04-15T09:51:02.930Z,101337.18
2018-04-15T09:52:07.231Z,101342.16
2018-04-15T09:53:11.453Z,101341.16
2018-04-15T09:54:15.661Z,101341.88
2018-04-15T09:55:19.969Z,101337.25
2018-04-15T09:56:24.229Z,101338.66
2018-04-15T09:57:28.750Z,101333.94
2018-04-15T09:58:33.482Z,101334.92
2018-04-15T09:59:37.781Z,101337.20
2018-04-15T10:00:42.772Z,101340.64
2018-04-15T10:01:47.052Z,101340.11
2018-04-15T10:02:51.223Z,101334.54
2018-04-15T10:03:55.710Z,101338.31
2018-04-15T10:04:59.974Z,101335.88
2018-04-15T10:06:04.136Z,101338.04
2018-04-15T10:07:08.298Z,101332.80
2018-04-15T10:08:12.517Z,101338.45
2018-04-15T10:09:16.692Z,101341.28
2018-04-15T10:10:20.927Z,101343.64
2018-04-15T10:11:25.083Z,101337.00
2018-04-15T10:12:29.418Z,101339.38
2018-04-15T10:13:34.638Z,101341.17
2018-04-15T10:14:39.742Z,101341.27
2018-04-15T10:15:44.207Z,101343.87
2018-04-15T10:16:48.754Z,101344.72
2018-04-15T10:17:52.999Z,101350.34
2018-04-15T10:18:57.186Z,101344.78
2018-04-15T10:20:01.524Z,101342.32
2018-04-15T10:21:05.714Z,101351.52
2018-04-15T10:22:09.860Z,101344.92
2018-04-15T10:23:14.351Z,101340.50
2018-04-15T10:24:18.550Z,101344.65
2018-04-15T10:25:22.840Z,101342.31
2018-04-15T10:26:27.064Z,101338.80
2018-04-15T10:27:31.363Z,101334.27
2018-04-15T10:28:36.346Z,101331.75
2018-04-15T10:29:40.877Z,101335.39
2018-04-15T10:30:45.157Z,101334.25
2018-04-15T10:31:49.489Z,101343.08
2018-04-15T10:32:53.793Z,101337.70
2018-04-15T10:33:57.959Z,101341.23
2018-04-15T10:35:02.690Z,101331.43
2018-04-15T10:36:06.867Z,101327.92
2018-04-15T10:37:11.131Z,101334.06
2018-04-15T10:38:15.355Z,101325.77
2018-04-15T10:39:19.558Z,101323.98
2018-04-15T10:40:23.721Z,101316.08
2018-04-15T10:41:28.322Z,101318.45
2018-04-15T10:42:32.503Z,101313.85
2018-04-15T10:43:36.721Z,101311.34
2018-04-15T10:44:41.950Z,101309.76
2018-04-15T10:45:46.254Z,101306.50
2018-04-15T10:46:50.574Z,101310.05
2018-04-15T10:47:55.077Z,101304.20
2018-04-15T10:48:59.274Z,101303.55
2018-04-15T10:50:03.497Z,101299.55
2018-04-15T10:51:07.769Z,101305.12
2018-04-15T10:52:12.125Z,101305.05
2018-04-15T10:53:16.336Z,101304.98
2018-04-15T10:54:20.510Z,101307.97
2018-04-15T10:55:24.787Z,101311.61
2018-04-15T10:56:28.951Z,101307.70
2018-04-15T10:57:33.107Z,101301.78
2018-04-15T10:58:37.367Z,101307.80
2018-04-15T10:59:41.878Z,101301.20
2018-04-15T11:00:46.311Z,101301.22
2018-04-15T11:01:50.872Z,101298.39
2018-04-15T11:02:55.121Z,101297.70
2018-04-15T11:03:59.360Z,101301.09
2018-04-15T11:05:03.738Z,101294.14
2018-04-15T11:06:08.087Z,101292.27
2018-04-15T11:07:12.335Z,101294.20
2018-04-15T11:08:16.532Z,101296.64
2018-04-15T11:09:20.868Z,101290.13
2018-04-15T11:10:25.089Z,101291.88
2018-04-15T11:11:29.444Z,101301.67
2018-04-15T11:12:33.657Z,101296.38
2018-04-15T11:13:37.931Z,101292.17
2018-04-15T11:14:42.145Z,101300.12
2018-04-15T11:15:46.896Z,101306.08
2018-04-15T11:16:51.394Z,101300.61
2018-04-15T11:17:55.704Z,101306.52
2018-04-15T11:18:59.965Z,101296.20
2018-04-15T11:20:04.423Z,101289.07
2018-04-15T11:21:08.639Z,101279.19
2018-04-15T11:22:12.896Z,101282.23
2018-04-15T11:23:17.348Z,101282.11
2018-04-15T11:24:21.615Z,101273.05
2018-04-15T11:25:25.783Z,101276.19
2018-04-15T11:26:29.983Z,101282.73
2018-04-15T11:27:34.149Z,101273.89
2018-04-15T11:28:38.357Z,101286.18
2018-04-15T11:29:42.953Z,101277.98
2018-04-15T11:30:48.283Z,101282.81
2018-04-15T11:31:53.118Z,101278.81
2018-04-15T11:32:57.298Z,101282.55
2018-04-15T11:34:01.575Z,101274.24
2018-04-15T11:35:05.787Z,101280.80
2018-04-15T11:36:09.967Z,101286.50
2018-04-15T11:37:14.140Z,101280.81
2018-04-15T11:38:18.360Z,101291.77
2018-04-15T11:39:22.667Z,101291.24
2018-04-15T11:40:26.903Z,101287.69
2018-04-15T11:41:31.088Z,101277.55
2018-04-15T11:42:35.570Z,101292.30
2018-04-15T11:43:39.891Z,101288.30
2018-04-15T11:44:44.247Z,101288.10
2018-04-15T11:45:49.464Z,101283.65
2018-04-15T11:46:54.510Z,101278.99
2018-04-15T11:47:58.776Z,101281.59
2018-04-15T11:49:03.184Z,101277.30
2018-04-15T11:50:07.411Z,101273.02
2018-04-15T11:51:11.650Z,101269.03
2018-04-15T11:52:15.802Z,101266.75
2018-04-15T11:53:20.188Z,101263.22
2018-04-15T11:54:24.714Z,101264.97
2018-04-15T11:55:28.937Z,101263.85
2018-04-15T11:56:33.101Z,101265.50
2018-04-15T11:57:37.521Z,101272.02
2018-04-15T11:58:41.826Z,101269.53
2018-04-15T11:59:46.769Z,101267.31
2018-04-15T12:00:53.640Z,101265.63
2018-04-15T12:01:58.632Z,101264.70
2018-04-15T12:03:02.913Z,101262.00
2018-04-15T12:04:07.247Z,101258.79
2018-04-15T12:05:11.539Z,101253.58
2018-04-15T12:06:15.855Z,101256.50
2018-04-15T12:07:20.088Z,101252.47
2018-04-15T12:08:24.332Z,101254.17
2018-04-15T12:09:28.635Z,101257.45
2018-04-15T12:10:32.929Z,101259.41
2018-04-15T12:11:37.252Z,101258.74
2018-04-15T12:12:41.485Z,101260.09
2018-04-15T12:13:45.709Z,101258.14
2018-04-15T12:14:50.171Z,101258.31
2018-04-15T12:15:55.636Z,101248.78
2018-04-15T12:16:59.907Z,101245.98
2018-04-15T12:18:04.212Z,101244.09
2018-04-15T12:19:08.802Z,101244.03
2018-04-15T12:20:13.136Z,101251.27
2018-04-15T12:21:17.404Z,101245.64
2018-04-15T12:22:21.667Z,101250.59